createdAt,value
2023-04-19T00:04:12.902Z,14.71
2023-04-19T00:09:18.592Z,14.63
2023-04-19T00:14:22.136Z,14.63
2023-04-19T00:19:24.798Z,14.57
2023-04-19T00:24:26.795Z,14.59
2023-04-19T00:29:29.055Z,14.56
2023-04-19T00:34:31.272Z,14.48
2023-04-19T00:39:33.305Z,14.40
2023-04-19T00:44:40.208Z,14.36
2023-04-19T00:49:42.548Z,14.28
2023-04-19T00:54:45.945Z,14.17
2023-04-19T00:59:48.843Z,14.09
2023-04-19T01:04:58.488Z,13.99
2023-04-19T01:10:00.760Z,14.04
2023-04-19T01:15:02.995Z,13.99
2023-04-19T01:20:08.804Z,13.92
2023-04-19T01:25:11.741Z,13.91
2023-04-19T01:30:14.069Z,13.90
2023-04-19T01:35:16.137Z,13.78
2023-04-19T01:40:22.073Z,13.80
2023-04-19T01:45:24.209Z,13.81
2023-04-19T01:50:28.000Z,13.82
2023-04-19T01:55:30.941Z,13.76
2023-04-19T02:00:32.984Z,13.68
2023-04-19T02:05:40.054Z,13.70
2023-04-19T02:10:43.182Z,13.64
2023-04-19T02:15:45.537Z,13.52
2023-04-19T02:20:47.961Z,13.46
2023-04-19T02:25:55.089Z,13.46
2023-04-19T02:30:57.434Z,13.40
2023-04-19T02:35:59.793Z,13.35
2023-04-19T02:41:05.223Z,13.22
2023-04-19T02:46:08.119Z,13.26
2023-04-19T02:51:16.560Z,13.17
2023-04-19T02:56:19.022Z,13.12
2023-04-19T03:01:21.594Z,12.91
2023-04-19T03:06:23.888Z,12.82
2023-04-19T03:11:28.204Z,12.86
2023-04-19T03:16:30.496Z,12.90
2023-04-19T03:21:33.213Z,12.88
2023-04-19T03:26:35.856Z,12.67
2023-04-19T03:31:38.622Z,12.61
2023-04-19T03:36:41.856Z,12.59
2023-04-19T03:41:44.257Z,12.62
2023-04-19T03:46:56.047Z,12.63
2023-04-19T03:52:02.056Z,12.55
2023-04-19T03:57:04.674Z,12.35
2023-04-19T04:02:08.075Z,12.17
2023-04-19T04:07:10.789Z,12.12
2023-04-19T04:12:13.386Z,12.07
2023-04-19T04:17:16.059Z,11.99
2023-04-19T04:22:18.150Z,11.76
2023-04-19T04:27:22.096Z,11.59
2023-04-19T04:32:27.958Z,11.56
2023-04-19T04:37:35.294Z,11.53
2023-04-19T04:42:38.000Z,11.57
2023-04-19T04:47:41.134Z,11.56
2023-04-19T04:52:43.171Z,11.62
2023-04-19T04:57:53.206Z,11.56
2023-04-19T05:03:13.973Z,11.49
2023-04-19T05:08:22.730Z,11.51
2023-04-19T05:13:25.517Z,11.46
2023-04-19T05:18:27.694Z,11.45
2023-04-19T05:23:31.720Z,11.43
2023-04-19T05:28:34.329Z,11.36
2023-04-19T05:33:43.787Z,11.27
2023-04-19T05:38:46.129Z,11.15
2023-04-19T05:43:49.004Z,11.23
2023-04-19T05:48:51.453Z,11.21
2023-04-19T05:54:02.464Z,11.16
2023-04-19T05:59:05.122Z,11.13
2023-04-19T06:04:08.005Z,11.04
2023-04-19T06:09:10.530Z,11.05
2023-04-19T06:14:15.796Z,10.87
2023-04-19T06:19:19.310Z,10.94
2023-04-19T06:24:21.391Z,10.92
2023-04-19T06:29:24.491Z,11.11
2023-04-19T06:34:26.649Z,11.22
2023-04-19T06:39:28.860Z,11.40
2023-04-19T06:44:31.021Z,11.49
2023-04-19T06:49:33.053Z,11.62
2023-04-19T06:54:35.143Z,11.76
2023-04-19T06:59:39.998Z,11.79
2023-04-19T07:04:42.600Z,11.77
2023-04-19T07:09:44.861Z,11.85
2023-04-19T07:14:47.695Z,12.06
2023-04-19T07:19:49.830Z,12.14
2023-04-19T07:24:53.174Z,12.29
2023-04-19T07:29:57.852Z,12.44
2023-04-19T07:35:00.162Z,12.55
2023-04-19T07:40:02.310Z,12.70
2023-04-19T07:45:05.969Z,12.87
2023-04-19T07:50:08.851Z,13.06
2023-04-19T07:55:11.151Z,13.33
2023-04-19T08:00:13.807Z,13.51
2023-04-19T08:05:19.184Z,13.63
2023-04-19T08:10:22.449Z,13.72
2023-04-19T08:16:03.747Z,14.03
2023-04-19T08:20:47.777Z,14.35
2023-04-19T08:25:50.972Z,14.68
2023-04-19T08:30:53.099Z,14.89
2023-04-19T08:35:55.250Z,15.07
2023-04-19T08:40:57.470Z,15.49
2023-04-19T08:45:59.615Z,15.73
2023-04-19T08:51:05.384Z,16.69
2023-04-19T08:56:18.137Z,17.52
2023-04-19T09:01:35.461Z,18.73
2023-04-19T09:06:39.655Z,20.05
2023-04-19T09:11:42.209Z,20.31
2023-04-19T09:16:45.027Z,20.80
2023-04-19T09:21:47.709Z,21.43
2023-04-19T09:26:55.183Z,21.64
2023-04-19T09:31:59.188Z,21.56
2023-04-19T09:37:27.601Z,21.70
2023-04-19T09:43:08.698Z,22.31
2023-04-19T09:48:16.873Z,22.57
2023-04-19T09:53:19.971Z,23.30
2023-04-19T09:58:22.498Z,23.97
2023-04-19T10:03:27.132Z,24.04
2023-04-19T10:08:29.709Z,23.72
2023-04-19T10:13:32.185Z,23.60
2023-04-19T10:18:34.362Z,24.11
2023-04-19T10:23:37.548Z,24.29
2023-04-19T10:28:39.604Z,24.72
2023-04-19T10:33:42.616Z,25.15
2023-04-19T10:38:48.304Z,24.80
2023-04-19T10:43:56.724Z,24.87
2023-04-19T10:49:00.217Z,24.82
2023-04-19T10:54:03.654Z,24.94
2023-04-19T10:59:08.568Z,24.94
2023-04-19T11:04:14.728Z,25.33
2023-04-19T11:09:31.586Z,25.09
2023-04-19T11:14:36.813Z,25.16
2023-04-19T11:19:39.032Z,25.20
2023-04-19T11:24:51.328Z,25.45
2023-04-19T11:29:53.527Z,25.40
2023-04-19T11:34:56.461Z,24.96
2023-04-19T11:39:58.709Z,24.32
2023-04-19T11:45:00.866Z,24.12
2023-04-19T11:50:31.565Z,23.66
2023-04-19T11:55:33.700Z,23.87
2023-04-19T12:00:35.798Z,23.34
2023-04-19T12:05:38.264Z,23.24
2023-04-19T12:10:56.276Z,22.68
2023-04-19T12:16:00.710Z,22.62
2023-04-19T12:21:04.295Z,22.83
2023-04-19T12:26:06.395Z,22.60
2023-04-19T12:31:09.883Z,22.63
2023-04-19T12:36:16.171Z,22.58
2023-04-19T12:41:18.301Z,22.41
2023-04-19T12:46:21.806Z,22.24
2023-04-19T12:51:23.980Z,22.24
2023-04-19T12:56:26.403Z,22.37
2023-04-19T13:01:28.467Z,22.09
2023-04-19T13:06:31.596Z,22.13
2023-04-19T13:11:33.695Z,22.32
2023-04-19T13:16:36.710Z,22.37
2023-04-19T13:21:38.709Z,22.45
2023-04-19T13:26:40.957Z,22.45
2023-04-19T13:31:47.177Z,22.41
2023-04-19T13:36:50.102Z,22.51
2023-04-19T13:41:52.309Z,22.40
2023-04-19T13:46:54.518Z,22.47
2023-04-19T13:51:56.701Z,22.70
2023-04-19T13:56:58.995Z,22.86
2023-04-19T14:02:04.237Z,22.86
2023-04-19T14:07:06.172Z,23.05
2023-04-19T14:12:09.413Z,22.99
2023-04-19T14:17:11.894Z,23.33
2023-04-19T14:22:13.764Z,23.30
2023-04-19T14:27:15.835Z,23.08
2023-04-19T14:32:25.857Z,23.12
2023-04-19T14:37:29.117Z,23.21
2023-04-19T14:42:31.507Z,23.29
2023-04-19T14:47:34.300Z,23.12
2023-04-19T14:52:36.579Z,23.12
2023-04-19T14:57:38.572Z,23.35
2023-04-19T15:02:40.734Z,23.44
2023-04-19T15:07:42.993Z,23.43
2023-04-19T15:12:45.119Z,23.23
2023-04-19T15:17:47.077Z,23.40
2023-04-19T15:22:49.026Z,23.36
2023-04-19T15:27:51.305Z,23.35
2023-04-19T15:32:53.633Z,23.31
2023-04-19T15:37:55.678Z,23.31
2023-04-19T15:42:57.709Z,23.33
2023-04-19T15:47:59.880Z,23.47
2023-04-19T15:53:02.091Z,23.62
2023-04-19T15:58:05.296Z,23.64
2023-04-19T16:03:08.695Z,23.68
2023-04-19T16:08:17.578Z,23.80
2023-04-19T16:13:19.755Z,23.68
2023-04-19T16:18:21.848Z,23.65
2023-04-19T16:23:24.798Z,23.58
2023-04-19T16:28:26.829Z,23.68
2023-04-19T16:33:28.914Z,23.66
2023-04-19T16:38:31.043Z,23.67
2023-04-19T16:43:33.568Z,23.68
2023-04-19T16:48:35.962Z,23.45
2023-04-19T16:53:38.037Z,23.45
2023-04-19T16:58:41.857Z,23.35
2023-04-19T17:03:45.292Z,23.21
2023-04-19T17:08:47.674Z,23.14
2023-04-19T17:13:50.006Z,23.13
2023-04-19T17:18:56.386Z,23.15
2023-04-19T17:23:58.585Z,23.10
2023-04-19T17:29:02.026Z,23.03
2023-04-19T17:34:04.274Z,22.94
2023-04-19T17:39:08.551Z,22.91
2023-04-19T17:44:12.893Z,22.88
2023-04-19T17:49:17.533Z,22.82
2023-04-19T17:54:20.720Z,22.77
2023-04-19T17:59:22.891Z,22.71
2023-04-19T18:04:25.233Z,22.74
2023-04-19T18:09:27.527Z,22.63
2023-04-19T18:14:29.860Z,22.55
2023-04-19T18:19:32.012Z,22.54
2023-04-19T18:24:34.071Z,22.40
2023-04-19T18:29:36.002Z,22.28
2023-04-19T18:34:38.144Z,22.19
2023-04-19T18:39:40.173Z,22.05
2023-04-19T18:50:02.670Z,21.66
2023-04-19T18:55:07.063Z,21.36
2023-04-19T19:00:12.450Z,21.27
2023-04-19T19:05:16.225Z,21.11
2023-04-19T19:10:21.880Z,20.96
2023-04-19T19:15:25.205Z,20.77
2023-04-19T19:20:27.355Z,20.48
2023-04-19T19:25:29.457Z,20.41
2023-04-19T19:30:34.028Z,20.36
2023-04-19T19:35:36.047Z,20.29
2023-04-19T19:41:04.180Z,20.13
2023-04-19T19:46:01.922Z,19.97
2023-04-19T19:51:29.109Z,19.91
2023-04-19T19:56:27.917Z,19.83
2023-04-19T20:01:31.811Z,19.72
2023-04-19T20:11:38.960Z,19.52
2023-04-19T20:16:41.153Z,19.45
2023-04-19T20:21:43.581Z,19.34
2023-04-19T20:26:46.603Z,19.25
2023-04-19T20:31:49.325Z,19.15
2023-04-19T20:36:51.800Z,19.01
2023-04-19T20:41:54.228Z,18.94
2023-04-19T20:46:56.775Z,18.93
2023-04-19T20:51:59.332Z,18.88
2023-04-19T20:57:05.000Z,18.79
2023-04-19T21:02:07.216Z,18.70
2023-04-19T21:07:09.862Z,18.54
2023-04-19T21:12:12.408Z,18.47
2023-04-19T21:17:14.822Z,18.44
2023-04-19T21:22:16.855Z,18.22
2023-04-19T21:27:18.765Z,18.19
2023-04-19T21:32:22.504Z,18.02
2023-04-19T21:37:24.741Z,17.90
2023-04-19T21:42:26.809Z,17.80
2023-04-19T21:47:28.998Z,17.74
2023-04-19T21:52:31.345Z,17.68
2023-04-19T21:57:33.331Z,17.67
2023-04-19T22:02:36.400Z,17.59
2023-04-19T22:07:40.228Z,17.47
2023-04-19T22:12:55.173Z,17.34
2023-04-19T22:18:03.065Z,17.32
2023-04-19T22:23:05.641Z,17.23
2023-04-19T22:28:07.959Z,17.23
2023-04-19T22:33:10.281Z,17.15
2023-04-19T22:38:12.880Z,17.06
2023-04-19T22:43:15.091Z,16.92
2023-04-19T22:48:17.487Z,16.89
2023-04-19T22:53:19.817Z,16.81
2023-04-19T22:58:22.353Z,16.82
2023-04-19T23:03:24.517Z,16.84
2023-04-19T23:08:26.634Z,16.67
2023-04-19T23:13:28.880Z,16.64
2023-04-19T23:18:31.183Z,16.54
2023-04-19T23:23:42.386Z,16.36
2023-04-19T23:28:44.769Z,16.39
2023-04-19T23:33:46.709Z,16.31
2023-04-19T23:38:48.724Z,16.28
2023-04-19T23:43:50.853Z,16.22
2023-04-19T23:48:53.010Z,16.19
2023-04-19T23:53:55.180Z,16.07
2023-04-19T23:58:57.770Z,15.72
